Latest Weather Observations for Badgerys Creek

IDN60801

Issued at 1:03 pm EDT Tuesday 21 November 2017 (issued every 30 minutes, with the page automatically refreshed every 10 minutes)

About weather observations | Map of weather stations | Latest weather observations for NSW | Other Formats
Station Details ID: 067108 Name: BADGERYS CREEK AWS Lat: -33.90 Lon: 150.73 Height: 81.2 m
Data from the previous 72 hours. | See also: Recent months at Badgerys Creek
Date/Time
EDT
Temp
°C
App
Temp
°C
Dew
Point
°C
Rel
Hum
%
Delta-T
°C
Wind Press
QNH
hPa
Press
MSL
hPa
Rain since
9am
mm
Dir  Spd
km/h
Gust
km/h
Spd
kts
Gust
kts
21/01:00pm 22.3 19.9 10.1 46 6.6 ESE 13 19 7 10 1023.8 1023.6 0.0
21/12:30pm 24.0 22.4 10.3 42 7.5 ENE 9 15 5 8 1024.1 1023.9 0.0
21/12:00pm 23.4 21.4 10.1 43 7.3 SE 11 17 6 9 1024.5 1024.3 0.0
21/11:30am 22.4 20.0 8.5 41 7.4 ENE 11 20 6 11 1024.5 1024.3 0.0
21/11:00am 21.9 20.1 9.4 45 6.7 SE 9 20 5 11 1024.9 1024.7 0.0
21/10:30am 20.8 18.9 9.1 47 6.2 E 9 17 5 9 1025.0 1024.8 0.0
21/10:00am 21.6 20.1 10.4 49 6.1 ESE 9 17 5 9 1025.1 1024.9 0.0
21/09:30am 20.8 18.2 9.4 48 6.1 SE 13 20 7 11 1025.1 1024.9 0.0
21/09:00am 21.5 18.9 9.4 46 6.5 ESE 13 19 7 10 1025.0 1024.8 1.0
21/08:30am 20.3 19.9 12.3 60 4.5 S 6 9 3 5 1025.1 1024.9 1.0
21/08:00am 18.5 18.1 12.3 67 3.4 SSW 6 9 3 5 1025.2 1025.0 1.0
21/07:30am 17.6 17.2 13.1 75 2.5 SW 7 9 4 5 1024.9 1024.7 1.0
21/07:00am 16.5 15.9 13.6 83 1.6 SW 9 11 5 6 1024.6 1024.4 1.0
21/06:30am 14.5 14.2 13.2 92 0.7 SSW 7 9 4 5 1024.6 1024.4 1.0
21/06:00am 14.2 13.8 13.1 93 0.6 SSW 7 7 4 4 1024.4 1024.2 1.0
21/05:30am 14.4 14.0 13.0 91 0.8 SSW 7 7 4 4 1024.3 1024.1 1.0
21/05:00am 15.0 14.7 13.2 89 1.0 SSW 7 9 4 5 1024.0 1023.8 1.0
21/04:30am 15.1 15.1 13.6 91 0.8 SSW 6 7 3 4 1024.0 1023.8 1.0
21/04:00am 15.3 15.4 13.8 91 0.8 SSW 6 7 3 4 1024.0 1023.8 1.0
21/03:30am 14.6 14.9 13.3 92 0.7 SSW 4 6 2 3 1023.9 1023.7 1.0
21/03:00am 14.4 14.6 13.1 92 0.7 SSW 4 6 2 3 1023.9 1023.7 1.0
21/02:30am 13.9 13.7 13.0 94 0.5 SSW 6 6 3 3 1024.0 1023.8 1.0
21/02:00am 13.9 13.6 12.8 93 0.6 SSW 6 7 3 4 1024.2 1024.0 1.0
21/01:30am 14.3 14.0 12.7 90 0.9 SSW 6 6 3 3 1024.5 1024.3 1.0
21/01:00am 14.9 14.8 13.3 90 0.9 SSW 6 7 3 4 1024.8 1024.6 1.0
21/12:30am 15.1 14.9 13.0 87 1.2 SSW 6 7 3 4 1025.2 1025.0 1.0
21/12:00am 15.3 15.4 12.8 85 1.4 SSE 4 6 2 3 1025.5 1025.3 1.0
 
Date/Time
EDT
Temp
°C
App
Temp
°C
Dew
Point
°C
Rel
Hum
%
Delta-T
°C
Wind Press
QNH
hPa
Press
MSL
hPa
Rain since
9am
mm
Dir  Spd
km/h
Gust
km/h
Spd
kts
Gust
kts
20/11:30pm 16.5 16.7 13.2 81 1.9 SSE 4 4 2 2 1025.5 1025.3 1.0
20/11:00pm 16.4 16.6 12.9 80 1.9 SSE 4 4 2 2 1025.7 1025.5 1.0
20/10:30pm 16.4 16.6 12.9 80 2.0 SSE 4 4 2 2 1025.8 1025.6 1.0
20/10:00pm 17.1 17.2 12.6 75 2.5 SSE 4 6 2 3 1025.8 1025.6 1.0
20/09:30pm 17.3 17.0 12.6 74 2.6 SSE 6 7 3 4 1025.6 1025.4 1.0
20/09:00pm 17.7 17.4 12.6 72 2.8 SE 6 6 3 3 1025.4 1025.2 1.0
20/08:30pm 18.0 17.5 12.5 70 3.1 SE 7 9 4 5 1025.1 1024.9 1.0
20/08:00pm 18.9 18.0 12.6 67 3.5 ESE 9 15 5 8 1024.9 1024.7 1.0
20/07:30pm 19.2 18.0 12.7 66 3.7 ESE 11 17 6 9 1024.6 1024.4 1.0
20/07:00pm 19.7 18.1 12.7 64 3.9 ESE 13 20 7 11 1024.4 1024.2 1.0
20/06:30pm 20.8 18.4 12.8 60 4.6 E 17 24 9 13 1023.9 1023.7 1.0
20/06:00pm 21.0 18.1 12.9 60 4.6 E 20 28 11 15 1023.7 1023.5 1.0
20/05:30pm 22.3 19.6 13.4 57 5.2 E 20 28 11 15 1023.4 1023.2 1.0
20/05:00pm 22.1 20.2 12.9 56 5.3 E 15 22 8 12 1023.5 1023.3 1.0
20/04:30pm 23.0 20.5 14.0 57 5.3 ESE 20 28 11 15 1023.5 1023.3 1.0
20/04:00pm 23.1 21.1 13.8 55 5.4 E 17 28 9 15 1023.7 1023.5 1.0
20/03:30pm 22.1 20.8 13.7 59 4.9 ESE 13 20 7 11 1024.1 1023.9 1.0
20/03:00pm 22.4 21.0 14.5 61 4.6 ESE 15 22 8 12 1024.4 1024.2 1.0
20/02:30pm 20.3 19.4 14.9 71 3.2 ESE 13 22 7 12 1025.1 1024.9 1.0
20/02:00pm 21.2 20.6 15.7 71 3.3 SSE 13 20 7 11 1025.4 1025.2 1.0
20/01:30pm 20.2 19.4 15.2 73 3.0 ESE 13 20 7 11 1025.6 1025.4 1.0
20/01:00pm 19.4 20.1 17.0 86 1.5 SSE 9 15 5 8 1025.8 1025.6 1.0
20/12:30pm 18.4 18.5 16.6 89 1.1 E 11 13 6 7 1026.1 1025.9 1.0
20/12:00pm 18.9 19.7 15.8 82 1.8 E 6 9 3 5 1026.3 1026.1 0.8
20/11:30am 18.6 19.8 16.8 89 1.1 SE 6 9 3 5 1026.2 1026.0 0.8
20/11:00am 19.7 19.7 14.3 71 3.1 SE 7 9 4 5 1026.4 1026.2 0.0
20/10:30am 18.7 19.5 16.3 86 1.4 E 7 13 4 7 1026.4 1026.2 0.0
20/10:00am 18.1 17.4 14.2 78 2.2 E 11 15 6 8 1026.3 1026.1 0.0
20/09:30am 18.4 16.6 13.3 72 2.9 ESE 15 24 8 13 1026.2 1026.0 0.0
20/09:00am 19.9 19.5 12.9 64 4.0 SE 7 11 4 6 1026.0 1025.8 0.0
20/08:30am 19.5 19.7 13.0 66 3.7 S 4 9 2 5 1025.9 1025.7 0.0
20/08:00am 18.0 17.7 13.3 74 2.6 SW 7 9 4 5 1025.7 1025.5 0.0
20/07:30am 17.2 16.9 13.3 78 2.2 WSW 7 9 4 5 1025.5 1025.3 0.0
20/07:00am 16.5 15.9 13.4 82 1.7 WSW 9 11 5 6 1025.2 1025.0 0.0
20/06:30am 15.4 15.2 13.6 89 1.0 SW 7 9 4 5 1024.8 1024.6 0.0
20/06:00am 14.2 13.8 13.1 93 0.6 WSW 7 7 4 4 1024.6 1024.4 0.0
20/05:30am 14.7 14.5 12.9 89 1.0 SSW 6 7 3 4 1024.4 1024.2 0.0
20/05:00am 15.1 14.9 13.1 88 1.1 SW 6 6 3 3 1024.2 1024.0 0.0
20/04:30am 15.5 15.3 13.7 89 1.0 SW 7 7 4 4 1024.2 1024.0 0.0
20/04:00am 15.0 14.9 14.0 94 0.6 SW 7 9 4 5 1024.1 1023.9 0.0
20/03:30am 14.9 15.2 13.4 91 0.8 SW 4 6 2 3 1024.2 1024.0 0.0
20/03:00am 14.7 14.5 13.6 93 0.6 SW 7 9 4 5 1024.2 1024.0 0.0
20/02:30am 14.6 14.3 13.3 92 0.7 WSW 7 9 4 5 1024.4 1024.2 0.0
20/02:00am 14.9 14.5 13.1 89 1.0 WSW 7 9 4 5 1024.6 1024.4 0.0
20/01:30am 15.1 14.7 13.0 87 1.2 SW 7 9 4 5 1024.7 1024.5 0.0
20/01:00am 15.6 15.5 13.3 86 1.3 SW 6 7 3 4 1024.7 1024.5 0.0
20/12:30am 16.2 16.1 13.3 83 1.6 SSW 6 7 3 4 1024.9 1024.7 0.0
20/12:00am 16.6 16.6 13.5 82 1.7 S 6 7 3 4 1025.1 1024.9 0.0
 
Date/Time
EDT
Temp
°C
App
Temp
°C
Dew
Point
°C
Rel
Hum
%
Delta-T
°C
Wind Press
QNH
hPa
Press
MSL
hPa
Rain since
9am
mm
Dir  Spd
km/h
Gust
km/h
Spd
kts
Gust
kts
19/11:30pm 16.3 16.1 13.0 81 1.8 S 6 6 3 3 1025.1 1024.9 0.0
19/11:00pm 17.0 17.3 13.5 80 2.0 SSE 4 6 2 3 1025.1 1024.9 0.0
19/10:30pm 17.6 17.6 13.7 78 2.2 SSE 6 9 3 5 1025.2 1025.0 0.0
19/10:00pm 17.8 18.0 14.1 79 2.1 SE 6 9 3 5 1025.1 1024.9 0.0
19/09:30pm 17.4 18.1 14.5 83 1.7 NE 4 4 2 2 1024.9 1024.7 0.0
19/09:00pm 18.2 19.0 14.7 80 2.0 NE 4 6 2 3 1024.7 1024.5 0.0
19/08:30pm 18.5 18.3 14.8 79 2.2 ENE 9 15 5 8 1024.3 1024.1 0.0
19/08:00pm 19.1 18.0 14.4 74 2.7 ENE 13 20 7 11 1023.9 1023.7 0.0
19/07:30pm 19.8 17.5 14.2 70 3.3 ESE 19 26 10 14 1023.5 1023.3 0.0
19/07:00pm 20.4 17.9 13.6 65 3.9 ESE 19 28 10 15 1023.2 1023.0 0.0
19/06:30pm 21.0 18.0 13.7 63 4.2 E 22 33 12 18 1022.8 1022.6 0.0
19/06:00pm 22.6 20.2 12.8 54 5.6 E 17 28 9 15 1022.4 1022.2 0.0
19/05:30pm 23.2 20.7 12.2 50 6.3 E 17 30 9 16 1022.3 1022.1 0.0
19/05:00pm 22.6 19.2 11.4 49 6.3 E 20 28 11 15 1022.2 1022.0 0.0
19/04:30pm 23.7 20.6 11.7 47 6.8 E 19 32 10 17 1022.1 1021.9 0.0
19/04:00pm 23.8 20.6 11.8 47 6.8 E 20 28 11 15 1022.2 1022.0 0.0
19/03:30pm 22.6 19.2 11.4 49 6.3 E 20 32 11 17 1022.3 1022.1 0.0
19/03:00pm 24.4 21.4 12.4 47 6.9 ESE 20 33 11 18 1022.5 1022.3 0.0
19/02:30pm 24.5 21.7 12.5 47 6.9 E 19 28 10 15 1022.5 1022.3 0.0
19/02:00pm 23.9 20.7 11.3 45 7.1 ESE 19 30 10 16 1022.9 1022.7 0.0
19/01:30pm 23.8 20.4 10.5 43 7.4 E 19 30 10 16 1022.9 1022.7 0.0
19/01:00pm 25.8 23.0 11.2 40 8.2 E 17 30 9 16 1022.9 1022.7 0.0
19/12:30pm 24.6 21.8 11.2 43 7.6 E 17 30 9 16 1022.9 1022.7 0.0
19/12:00pm 23.0 19.7 9.4 42 7.3 ESE 17 26 9 14 1023.2 1023.0 0.0
19/11:30am 23.8 20.8 10.5 43 7.4 E 17 24 9 13 1023.5 1023.3 0.0
19/11:00am 23.6 21.3 11.6 47 6.8 E 15 24 8 13 1023.5 1023.3 0.0
19/10:30am 22.0 20.4 11.7 52 5.8 E 11 19 6 10 1023.7 1023.5 0.0
19/10:00am 22.3 20.7 11.4 50 6.1 E 11 20 6 11 1023.6 1023.4 0.0
19/09:30am 21.6 21.7 12.7 57 5.1 ENE 4 9 2 5 1023.7 1023.5 0.0
19/09:00am 21.6 20.4 12.7 57 5.1 ESE 11 20 6 11 1023.8 1023.6 0.0
19/08:30am 20.0 19.4 13.5 66 3.7 SSE 9 13 5 7 1023.9 1023.7 0.0
19/08:00am 19.5 19.1 13.0 66 3.7 SE 7 11 4 6 1023.7 1023.5 0.0
19/07:30am 18.9 18.5 13.1 69 3.3 SSE 7 11 4 6 1023.3 1023.1 0.0
19/07:00am 18.0 18.1 13.9 77 2.3 SSW 6 6 3 3 1022.9 1022.7 0.0
19/06:30am 16.9 17.2 14.4 85 1.4 SE 6 7 3 4 1022.4 1022.2 0.0
19/06:00am 15.7 16.0 13.5 87 1.2 SE 4 4 2 2 1022.1 1021.9 0.0
19/05:30am 16.4 17.2 13.7 84 1.5 SE 2 4 1 2 1022.0 1021.7 0.0
19/05:00am 16.2 16.6 13.7 85 1.4 SE 4 6 2 3 1021.5 1021.2 0.0
19/04:30am 16.7 17.1 13.8 83 1.6 SE 4 6 2 3 1021.2 1020.9 0.0
19/04:00am 16.7 16.8 14.0 84 1.5 SE 6 7 3 4 1021.1 1020.8 0.0
19/03:30am 16.8 16.9 13.9 83 1.7 SE 6 7 3 4 1020.9 1020.6 0.0
19/03:00am 16.9 17.0 13.8 82 1.8 SE 6 7 3 4 1020.8 1020.5 0.0
19/02:30am 17.2 17.2 13.7 80 2.0 ESE 6 9 3 5 1020.8 1020.5 0.0
19/02:00am 17.7 17.4 13.4 76 2.4 ESE 7 11 4 6 1020.9 1020.6 0.0
19/01:30am 17.9 17.1 14.0 78 2.2 E 11 19 6 10 1021.0 1020.7 0.0
19/01:00am 18.0 17.6 14.1 78 2.2 ESE 9 13 5 7 1021.1 1020.8 0.0
19/12:30am 18.1 18.2 14.4 79 2.1 ESE 7 11 4 6 1021.5 1021.2 0.0
19/12:00am 18.1 18.4 14.6 80 2.0 ESE 6 7 3 4 1021.8 1021.5 0.0
 
Date/Time
EDT
Temp
°C
App
Temp
°C
Dew
Point
°C
Rel
Hum
%
Delta-T
°C
Wind Press
QNH
hPa
Press
MSL
hPa
Rain since
9am
mm
Dir  Spd
km/h
Gust
km/h
Spd
kts
Gust
kts
18/11:30pm 18.3 17.9 14.0 76 2.5 ESE 9 15 5 8 1021.8 1021.5 0.0
18/11:00pm 19.0 18.1 12.5 66 3.6 E 9 11 5 6 1021.6 1021.3 0.0
18/10:30pm 19.4 17.6 12.2 63 4.0 ENE 13 17 7 9 1021.5 1021.2 0.0
18/10:00pm 19.6 16.9 12.8 65 3.8 ENE 19 26 10 14 1021.4 1021.1 0.0
18/09:30pm 19.8 17.5 13.0 65 3.9 ENE 17 22 9 12 1021.2 1020.9 0.0
18/09:00pm 19.8 18.4 13.3 66 3.7 ENE 13 20 7 11 1021.1 1020.8 0.0
18/08:30pm 19.9 17.7 13.4 66 3.7 ENE 17 28 9 15 1020.6 1020.3 0.0
18/08:00pm 20.0 17.6 13.7 67 3.6 ENE 19 28 10 15 1020.3 1020.0 0.0
18/07:30pm 20.3 18.2 13.7 66 3.8 ENE 17 26 9 14 1020.0 1019.7 0.0
18/07:00pm 20.6 18.2 13.8 65 3.9 ENE 19 30 10 16 1019.6 1019.3 0.0
18/06:30pm 19.9 18.4 14.3 70 3.3 NE 15 28 8 15 1019.4 1019.1 0.0
18/06:00pm 21.0 18.4 13.7 63 4.2 ENE 20 30 11 16 1019.1 1018.8 0.0
18/05:30pm 21.4 18.0 13.6 61 4.5 E 24 32 13 17 1019.0 1018.7 0.0
18/05:00pm 21.8 18.9 13.9 61 4.6 E 22 32 12 17 1018.9 1018.6 0.0
18/04:30pm 21.7 18.8 13.9 61 4.5 ENE 22 30 12 16 1019.1 1018.8 0.0
18/04:00pm 21.7 17.9 13.6 60 4.7 ENE 26 37 14 20 1019.0 1018.7 0.0
18/03:30pm 22.2 18.1 13.8 59 4.9 ENE 28 39 15 21 1019.0 1018.7 0.0
18/03:00pm 22.3 18.1 13.6 58 5.0 E 28 43 15 23 1019.0 1018.7 0.0
18/02:30pm 23.0 18.9 13.8 56 5.4 ENE 28 41 15 22 1018.9 1018.6 0.0
18/02:00pm 23.1 19.5 14.1 57 5.3 E 26 41 14 22 1019.0 1018.7 0.0
18/01:30pm 23.1 19.5 14.1 57 5.3 E 26 35 14 19 1019.0 1018.7 0.0

Other Formats:

Comma delimited format used in spreadsheet applications
http://www.bom.gov.au/fwo/IDN60801/IDN60801.94752.axf

JavaScript Object Notation format (JSON) in row-major order
http://www.bom.gov.au/fwo/IDN60801/IDN60801.94752.json